Time,TemperatureF,DewpointF,PressureIn,WindDirection,WindDirectionDegrees,WindSpeedMPH,WindSpeedGustMPH,Humidity,HourlyPrecipIn,Conditions,Clouds,dailyrainin,SoftwareType,DateUTC
2018-01-22 00:04:00,20.0,15.0,-100.00,SSE,165,4.0,11.0,81,-99.99,,,-99.99,,2018-01-22 07:04:00,
2018-01-22 00:37:00,19.0,16.0,-100.00,SE,139,3.0,8.0,87,-99.99,,,-99.99,,2018-01-22 07:37:00,
2018-01-22 02:04:00,20.0,17.0,-100.00,SSE,163,3.0,10.0,88,-99.99,,,-99.99,,2018-01-22 09:04:00,
2018-01-22 02:40:00,20.0,17.0,-100.00,South,173,4.0,8.0,90,-99.99,,,-99.99,,2018-01-22 09:40:00,
2018-01-22 03:04:00,20.0,17.0,-100.00,South,173,4.0,8.0,90,-99.99,,,-99.99,,2018-01-22 10:04:00,
2018-01-22 04:04:00,20.0,18.0,-100.00,SW,226,2.0,7.0,92,-99.99,,,-99.99,,2018-01-22 11:04:00,
2018-01-22 05:04:00,20.0,18.0,-100.00,SSW,201,1.0,4.0,93,-99.99,,,-99.99,,2018-01-22 12:04:00,
2018-01-22 05:38:00,20.0,19.0,-100.00,SSE,151,2.0,5.0,94,-99.99,,,-99.99,,2018-01-22 12:38:00,
2018-01-22 06:04:00,20.0,19.0,-100.00,SSE,151,2.0,5.0,94,-99.99,,,-99.99,,2018-01-22 13:04:00,
2018-01-22 06:38:00,20.0,18.0,-100.00,South,181,2.0,6.0,93,-99.99,,,-99.99,,2018-01-22 13:38:00,
2018-01-22 07:04:00,20.0,18.0,-100.00,South,181,2.0,6.0,93,-99.99,,,-99.99,,2018-01-22 14:04:00,
2018-01-22 07:38:00,19.0,17.0,-100.00,South,177,2.0,5.0,93,-99.99,,,-99.99,,2018-01-22 14:38:00,
2018-01-22 08:04:00,19.0,17.0,-100.00,South,177,2.0,5.0,93,-99.99,,,-99.99,,2018-01-22 15:04:00,
2018-01-22 08:38:00,19.0,17.0,-100.00,NE,51,2.0,5.0,92,-99.99,,,-99.99,,2018-01-22 15:38:00,
2018-01-22 09:05:00,19.0,17.0,-100.00,NE,51,2.0,5.0,92,-99.99,,,-99.99,,2018-01-22 16:05:00,
2018-01-22 09:38:00,20.0,18.0,-100.00,ENE,69,2.0,3.0,91,-99.99,,,-99.99,,2018-01-22 16:38:00,
2018-01-22 10:04:00,20.0,18.0,-100.00,ENE,69,2.0,3.0,91,-99.99,,,-99.99,,2018-01-22 17:04:00,
2018-01-22 10:38:00,23.0,19.0,-100.00,South,188,1.0,4.0,86,-99.99,,,-99.99,,2018-01-22 17:38:00,
2018-01-22 11:04:00,23.0,19.0,-100.00,South,188,1.0,4.0,86,-99.99,,,-99.99,,2018-01-22 18:04:00,
2018-01-22 11:38:00,24.0,21.0,-100.00,South,183,1.0,2.0,87,-99.99,,,-99.99,,2018-01-22 18:38:00,
2018-01-22 12:04:00,24.0,21.0,-100.00,South,183,1.0,2.0,87,-99.99,,,-99.99,,2018-01-22 19:04:00,
2018-01-22 12:38:00,27.0,22.0,-100.00,SW,221,1.0,3.0,81,-99.99,,,-99.99,,2018-01-22 19:38:00,
2018-01-22 13:04:00,27.0,22.0,-100.00,SW,221,1.0,3.0,81,-99.99,,,-99.99,,2018-01-22 20:04:00,
2018-01-22 13:38:00,25.0,22.0,-100.00,SSW,213,1.0,3.0,90,-99.99,,,-99.99,,2018-01-22 20:38:00,
2018-01-22 14:04:00,25.0,22.0,-100.00,SSW,213,1.0,3.0,90,-99.99,,,-99.99,,2018-01-22 21:04:00,
2018-01-22 14:38:00,24.0,21.0,-100.00,WSW,242,2.0,6.0,89,-99.99,,,-99.99,,2018-01-22 21:38:00,
2018-01-22 15:04:00,24.0,21.0,-100.00,WSW,242,2.0,6.0,89,-99.99,,,-99.99,,2018-01-22 22:04:00,
2018-01-22 15:38:00,23.0,21.0,-100.00,SW,226,1.0,5.0,91,-99.99,,,-99.99,,2018-01-22 22:38:00,
2018-01-22 16:05:00,23.0,21.0,-100.00,SW,226,1.0,5.0,91,-99.99,,,-99.99,,2018-01-22 23:05:00,
2018-01-22 16:38:00,23.0,20.0,-100.00,SW,235,2.0,3.0,90,-99.99,,,-99.99,,2018-01-22 23:38:00,
2018-01-22 17:04:00,23.0,20.0,-100.00,SW,235,2.0,3.0,90,-99.99,,,-99.99,,2018-01-23 00:04:00,
2018-01-22 17:38:00,20.0,17.0,-100.00,WNW,284,2.0,4.0,88,-99.99,,,-99.99,,2018-01-23 00:38:00,
2018-01-22 18:04:00,20.0,17.0,-100.00,WNW,284,2.0,4.0,88,-99.99,,,-99.99,,2018-01-23 01:04:00,
2018-01-22 18:38:00,19.0,16.0,-100.00,WSW,253,1.0,3.0,88,-99.99,,,-99.99,,2018-01-23 01:38:00,
2018-01-22 20:04:00,19.0,16.0,-100.00,WSW,250,1.0,3.0,88,-99.99,,,-99.99,,2018-01-23 03:04:00,
2018-01-22 20:38:00,19.0,17.0,-100.00,West,267,2.0,5.0,93,-99.99,,,-99.99,,2018-01-23 03:38:00,
2018-01-22 21:04:00,19.0,17.0,-100.00,West,267,2.0,5.0,93,-99.99,,,-99.99,,2018-01-23 04:04:00,
2018-01-22 21:39:00,19.0,17.0,-100.00,SW,233,2.0,3.0,93,-99.99,,,-99.99,,2018-01-23 04:39:00,
2018-01-22 22:04:00,19.0,17.0,-100.00,SW,233,2.0,3.0,93,-99.99,,,-99.99,,2018-01-23 05:04:00,
2018-01-22 22:38:00,19.0,18.0,-100.00,SW,218,1.0,3.0,94,-99.99,,,-99.99,,2018-01-23 05:38:00,
2018-01-22 23:04:00,19.0,18.0,-100.00,SW,218,1.0,3.0,94,-99.99,,,-99.99,,2018-01-23 06:04:00,